Time;durP1;ratioP1;P1;durP2;ratioP2;P2;SDS_P1;SDS_P2;PMS_P1;PMS_P2;Temp;Humidity;BMP_temperature;BMP_pressure;BME280_temperature;BME280_humidity;BME280_pressure;Samples;Min_cycle;Max_cycle;Signal;HPM_P1;HPM_P2
2022/06/23 00:00:27;;;;;;;2.45;1.90;;;22.80;54.00;;;;;;5093416;28;20177;-46
2022/06/23 00:02:52;;;;;;;3.33;2.30;;;22.90;54.10;;;;;;5092044;28;20222;-47
2022/06/23 00:05:20;;;;;;;2.55;1.98;;;22.80;54.00;;;;;;5092036;28;20220;-47
2022/06/23 00:07:50;;;;;;;3.35;2.13;;;22.80;54.10;;;;;;5092728;28;20523;-48
2022/06/23 00:10:40;;;;;;;2.28;2.08;;;22.80;54.10;;;;;;5091226;28;20540;-47
2022/06/23 00:13:36;;;;;;;3.75;2.47;;;22.80;54.70;;;;;;5092582;28;20227;-47
2022/06/23 00:16:03;;;;;;;2.55;2.35;;;22.80;54.10;;;;;;5091780;28;20535;-49
2022/06/23 00:18:34;;;;;;;2.30;2.10;;;22.80;54.10;;;;;;5092932;28;20200;-48
2022/06/23 00:21:09;;;;;;;2.30;2.10;;;22.80;54.10;;;;;;5091811;28;20505;-48
2022/06/23 00:23:37;;;;;;;2.63;2.33;;;22.80;54.10;;;;;;5074832;28;20208;-49
2022/06/23 00:26:12;;;;;;;3.40;2.58;;;22.80;54.20;;;;;;5075259;28;20213;-46
2022/06/23 00:28:51;;;;;;;2.55;2.35;;;22.80;54.20;;;;;;5091728;28;20173;-48
2022/06/23 00:31:44;;;;;;;2.70;2.10;;;22.80;54.20;;;;;;5075465;28;20196;-48
2022/06/23 00:34:22;;;;;;;2.40;2.20;;;22.80;54.20;;;;;;5094551;28;20185;-47
2022/06/23 00:36:51;;;;;;;3.28;2.17;;;22.80;54.30;;;;;;5096035;28;20174;-46
2022/06/23 00:39:41;;;;;;;3.35;2.28;;;22.80;54.30;;;;;;5096950;28;20611;-47
2022/06/23 00:42:40;;;;;;;2.45;2.03;;;22.80;54.30;;;;;;5080280;28;20180;-46
2022/06/23 00:45:11;;;;;;;3.28;2.33;;;22.80;54.30;;;;;;5094906;28;20213;-46
2022/06/23 00:48:04;;;;;;;3.63;2.58;;;22.80;54.30;;;;;;5096500;28;20178;-47
2022/06/23 00:50:30;;;;;;;3.30;2.20;;;22.80;54.30;;;;;;5095008;28;20177;-46
2022/06/23 00:53:44;;;;;;;2.50;2.20;;;22.80;54.40;;;;;;5096572;28;20170;-46
2022/06/23 00:56:42;;;;;;;3.08;2.63;;;22.70;54.30;;;;;;5078285;28;20624;-46
2022/06/23 00:59:29;;;;;;;4.57;2.47;;;22.80;54.40;;;;;;5094771;28;20174;-47
2022/06/23 01:02:09;;;;;;;3.67;2.28;;;22.70;54.40;;;;;;5096375;28;20191;-46
2022/06/23 01:04:53;;;;;;;3.35;2.60;;;22.70;54.30;;;;;;5077979;28;20217;-47
2022/06/23 01:07:21;;;;;;;2.45;2.15;;;22.70;55.10;;;;;;5095353;28;20720;-46
2022/06/23 01:09:55;;;;;;;2.17;1.98;;;22.70;54.50;;;;;;5096141;28;20173;-47
2022/06/23 01:12:32;;;;;;;3.55;2.20;;;22.70;54.50;;;;;;5094368;28;20614;-48
2022/06/23 01:15:16;;;;;;;4.20;3.03;;;22.70;54.50;;;;;;5094697;28;20184;-47
2022/06/23 01:18:08;;;;;;;3.10;2.22;;;22.70;54.50;;;;;;5095963;28;20196;-47
2022/06/23 01:20:39;;;;;;;3.22;2.17;;;22.70;54.50;;;;;;5090472;28;20189;-47
2022/06/23 01:23:28;;;;;;;2.97;2.13;;;22.70;54.60;;;;;;5078364;28;20660;-48
2022/06/23 01:26:13;;;;;;;2.80;2.60;;;22.70;54.50;;;;;;5079913;28;20205;-49
2022/06/23 01:28:40;;;;;;;3.63;2.78;;;22.70;54.50;;;;;;5094790;28;20182;-47
2022/06/23 01:31:26;;;;;;;2.60;2.40;;;22.70;54.50;;;;;;5095823;28;20261;-47
2022/06/23 01:34:03;;;;;;;3.88;2.60;;;22.70;54.60;;;;;;5093793;28;20542;-47
2022/06/23 01:36:40;;;;;;;3.45;2.45;;;22.70;54.50;;;;;;5094950;28;20216;-49
2022/06/23 01:39:13;;;;;;;2.60;2.40;;;22.70;54.50;;;;;;5094781;28;20216;-47
2022/06/23 01:41:42;;;;;;;2.25;2.05;;;22.70;54.60;;;;;;5095065;28;20182;-47
2022/06/23 01:44:13;;;;;;;3.00;2.40;;;22.70;54.60;;;;;;5094516;28;20201;-49
2022/06/23 01:46:40;;;;;;;3.75;2.45;;;22.70;54.60;;;;;;5094990;28;20197;-47
2022/06/23 01:49:29;;;;;;;4.43;2.65;;;22.70;54.60;;;;;;5095823;28;20232;-47
2022/06/23 01:52:11;;;;;;;2.63;2.42;;;22.70;54.60;;;;;;5078207;28;20707;-46
2022/06/23 01:54:37;;;;;;;3.03;2.70;;;22.70;54.60;;;;;;5093457;28;20188;-46
2022/06/23 01:57:24;;;;;;;2.53;2.33;;;22.60;54.50;;;;;;5095540;28;20260;-46
2022/06/23 02:00:08;;;;;;;3.20;2.90;;;22.60;54.60;;;;;;5077715;28;20178;-46
2022/06/23 02:02:49;;;;;;;2.83;2.38;;;22.60;54.60;;;;;;5094529;28;20213;-47
2022/06/23 02:05:37;;;;;;;2.70;2.35;;;22.60;54.60;;;;;;5094420;28;20356;-49
2022/06/23 02:08:08;;;;;;;2.50;2.30;;;22.60;54.60;;;;;;5094581;28;20269;-48
2022/06/23 02:10:35;;;;;;;2.50;2.33;;;22.60;54.60;;;;;;5095128;28;20580;-46
2022/06/23 02:13:10;;;;;;;3.08;2.78;;;22.60;54.60;;;;;;5094074;28;20230;-47
2022/06/23 02:15:38;;;;;;;3.40;2.65;;;22.60;54.70;;;;;;5094460;28;20169;-47
2022/06/23 02:18:14;;;;;;;3.15;2.55;;;22.60;54.60;;;;;;5095451;28;20542;-47
2022/06/23 02:20:57;;;;;;;3.00;2.67;;;22.60;54.70;;;;;;5093843;28;20228;-48
2022/06/23 02:23:23;;;;;;;3.03;2.50;;;22.60;54.70;;;;;;5094247;28;20173;-46
2022/06/23 02:25:56;;;;;;;3.03;2.72;;;22.60;54.70;;;;;;5094527;28;20230;-46
2022/06/23 02:28:26;;;;;;;3.58;2.90;;;22.60;54.70;;;;;;5077671;28;20199;-46
2022/06/23 02:30:54;;;;;;;2.97;2.67;;;22.60;54.70;;;;;;5092712;28;20628;-47
2022/06/23 02:33:38;;;;;;;2.70;2.50;;;22.60;54.70;;;;;;5093671;28;20188;-47
2022/06/23 02:36:41;;;;;;;2.75;2.40;;;22.60;54.70;;;;;;5092693;28;20639;-47
2022/06/23 02:39:16;;;;;;;2.92;2.30;;;22.60;54.70;;;;;;5094546;28;20181;-46
2022/06/23 02:41:46;;;;;;;3.28;2.67;;;22.60;54.70;;;;;;5093276;28;20188;-50
2022/06/23 02:44:35;;;;;;;3.05;2.30;;;22.60;54.70;;;;;;5093874;28;20209;-47
2022/06/23 02:47:22;;;;;;;2.85;2.40;;;22.60;54.80;;;;;;5094577;28;20170;-49
2022/06/23 02:50:06;;;;;;;2.50;2.30;;;22.60;54.80;;;;;;5094341;28;20253;-46
2022/06/23 02:52:55;;;;;;;3.85;2.85;;;22.50;54.70;;;;;;5094561;28;20185;-48
2022/06/23 02:55:29;;;;;;;3.20;2.63;;;22.60;54.80;;;;;;5093140;28;20188;-48
2022/06/23 02:57:55;;;;;;;3.08;2.78;;;22.60;54.80;;;;;;5093374;28;20169;-47
2022/06/23 03:00:39;;;;;;;2.38;2.17;;;22.50;54.70;;;;;;5094427;28;20631;-47
2022/06/23 03:03:39;;;;;;;2.38;2.17;;;22.60;54.80;;;;;;5094055;28;20224;-49
2022/06/23 03:06:12;;;;;;;3.22;2.78;;;22.60;54.80;;;;;;5090162;28;20194;-47
2022/06/23 03:08:55;;;;;;;3.58;2.85;;;22.50;54.70;;;;;;5092984;28;20188;-47
2022/06/23 03:11:53;;;;;;;2.95;2.70;;;22.50;54.70;;;;;;5076463;28;20181;-47
2022/06/23 03:14:39;;;;;;;2.92;2.63;;;22.50;54.70;;;;;;5092974;28;20624;-48
2022/06/23 03:17:20;;;;;;;2.60;2.40;;;22.50;54.70;;;;;;5092940;28;20277;-47
2022/06/23 03:20:01;;;;;;;3.05;2.70;;;22.50;54.80;;;;;;5076345;28;20170;-47
2022/06/23 03:22:29;;;;;;;2.53;2.33;;;22.50;54.80;;;;;;5094056;28;20177;-46
2022/06/23 03:25:18;;;;;;;3.70;3.00;;;22.50;54.70;;;;;;5092421;28;20300;-46
2022/06/23 03:27:50;;;;;;;2.80;2.60;;;22.50;54.70;;;;;;5085141;28;20676;-47
2022/06/23 03:30:19;;;;;;;2.45;2.25;;;22.50;54.70;;;;;;5092562;28;20185;-47
2022/06/23 03:33:10;;;;;;;2.70;2.50;;;22.50;54.70;;;;;;5092780;28;20170;-49
2022/06/23 03:35:43;;;;;;;2.88;2.38;;;22.50;54.70;;;;;;5054381;28;20221;-48
2022/06/23 03:41:36;;;;;;;3.35;2.88;;;22.50;54.80;;;;;;5093635;28;20193;-48
2022/06/23 03:44:00;;;;;;;3.08;2.78;;;22.50;54.70;;;;;;5092388;28;20208;-47
2022/06/23 03:46:36;;;;;;;3.80;2.85;;;22.50;54.70;;;;;;5091566;28;20177;-47
2022/06/23 03:49:37;;;;;;;2.20;2.00;;;22.50;54.70;;;;;;5093130;28;20184;-46
2022/06/23 03:52:04;;;;;;;3.25;2.72;;;22.50;54.70;;;;;;5088361;28;20235;-49
2022/06/23 03:54:46;;;;;;;3.75;2.53;;;22.50;54.80;;;;;;5091451;28;20260;-49
2022/06/23 03:57:25;;;;;;;4.57;3.15;;;22.50;54.80;;;;;;5076657;28;20182;-50
2022/06/23 04:00:13;;;;;;;2.70;2.50;;;22.50;54.80;;;;;;5093191;28;20181;-48
2022/06/23 04:02:41;;;;;;;2.90;2.42;;;22.50;54.70;;;;;;5063752;28;20224;-48
2022/06/23 04:05:15;;;;;;;3.00;2.40;;;22.50;54.70;;;;;;5075190;28;20213;-47
2022/06/23 04:07:47;;;;;;;3.20;2.90;;;22.50;54.70;;;;;;5090384;28;20175;-47
2022/06/23 04:10:13;;;;;;;2.58;2.38;;;22.50;54.70;;;;;;5093214;28;20177;-48
2022/06/23 04:12:43;;;;;;;3.38;2.40;;;22.50;54.70;;;;;;5091809;28;20295;-47
2022/06/23 04:15:10;;;;;;;2.70;2.50;;;22.50;54.70;;;;;;5092420;28;20180;-46
2022/06/23 04:17:45;;;;;;;3.00;2.70;;;22.50;54.70;;;;;;5091604;28;20255;-49
2022/06/23 04:20:19;;;;;;;3.63;2.83;;;22.50;54.70;;;;;;5092956;28;20177;-47
2022/06/23 04:22:58;;;;;;;4.70;2.70;;;22.50;54.70;;;;;;5091848;28;20260;-48
2022/06/23 04:25:44;;;;;;;2.95;2.75;;;22.50;54.70;;;;;;5092717;28;20217;-47
2022/06/23 04:28:19;;;;;;;2.80;2.30;;;22.50;54.70;;;;;;5077720;28;20196;-47
2022/06/23 04:30:45;;;;;;;3.05;2.75;;;22.50;54.70;;;;;;5092020;28;20169;-48
2022/06/23 04:33:17;;;;;;;2.97;2.70;;;22.50;54.80;;;;;;5093010;28;20173;-49
2022/06/23 04:35:47;;;;;;;3.13;2.55;;;22.50;54.70;;;;;;5074277;28;20181;-48
2022/06/23 04:38:21;;;;;;;3.63;2.42;;;22.50;54.70;;;;;;5091673;28;20253;-49
2022/06/23 04:40:48;;;;;;;2.53;2.33;;;22.50;54.70;;;;;;5091227;28;20538;-48
2022/06/23 04:43:29;;;;;;;3.92;2.70;;;22.50;54.70;;;;;;5092059;28;20177;-49
2022/06/23 04:46:09;;;;;;;3.00;2.53;;;22.50;54.70;;;;;;5075751;28;20201;-48
2022/06/23 04:48:53;;;;;;;2.63;2.42;;;22.50;54.70;;;;;;5075603;28;20180;-54
2022/06/23 04:51:32;;;;;;;2.78;2.58;;;22.50;54.70;;;;;;5091883;28;20539;-47
2022/06/23 04:53:58;;;;;;;3.03;2.72;;;22.50;54.70;;;;;;5091046;28;20185;-48
2022/06/23 04:56:25;;;;;;;3.25;2.80;;;22.50;54.70;;;;;;5092859;28;20180;-47
2022/06/23 04:59:01;;;;;;;3.25;3.05;;;22.50;54.70;;;;;;5090380;28;20200;-46
2022/06/23 05:01:34;;;;;;;3.20;2.55;;;22.50;54.70;;;;;;5074954;28;20593;-47
2022/06/23 05:03:59;;;;;;;2.78;2.58;;;22.50;54.70;;;;;;5090107;28;20244;-48
2022/06/23 05:06:31;;;;;;;4.10;2.50;;;22.50;54.60;;;;;;5091321;28;20166;-48
2022/06/23 05:09:03;;;;;;;3.35;2.28;;;22.50;54.60;;;;;;5092556;28;20268;-48
2022/06/23 05:11:35;;;;;;;2.70;2.50;;;22.50;54.60;;;;;;5090920;28;20176;-47
2022/06/23 05:14:13;;;;;;;2.72;2.50;;;22.50;54.70;;;;;;5091521;28;20174;-47
2022/06/23 05:16:44;;;;;;;2.72;2.53;;;22.50;54.60;;;;;;5092150;28;20177;-49
2022/06/23 05:19:12;;;;;;;2.55;2.33;;;22.50;54.60;;;;;;5095041;28;20264;-49
2022/06/23 05:21:42;;;;;;;4.28;2.75;;;22.50;54.60;;;;;;5094869;28;20174;-51
2022/06/23 05:24:14;;;;;;;3.33;2.97;;;22.50;54.70;;;;;;5096127;28;20223;-48
2022/06/23 05:26:50;;;;;;;3.08;2.80;;;22.50;54.60;;;;;;5094342;28;20170;-49
2022/06/23 05:29:21;;;;;;;2.78;2.50;;;22.50;54.60;;;;;;5096010;28;20261;-48
2022/06/23 05:31:49;;;;;;;2.67;2.30;;;22.50;54.60;;;;;;5094066;28;20182;-50
2022/06/23 05:34:22;;;;;;;2.70;2.50;;;22.50;54.70;;;;;;5094796;28;20666;-50
2022/06/23 05:37:19;;;;;;;2.90;2.53;;;22.50;54.70;;;;;;5094564;28;20264;-48
2022/06/23 05:39:55;;;;;;;3.20;2.65;;;22.60;54.70;;;;;;5095048;28;20184;-54
2022/06/23 05:42:26;;;;;;;2.63;2.40;;;22.60;54.70;;;;;;5094612;28;20177;-49
2022/06/23 05:44:56;;;;;;;3.17;2.70;;;22.50;54.70;;;;;;5077622;28;20214;-49
2022/06/23 05:47:22;;;;;;;2.60;2.40;;;22.60;54.70;;;;;;5093845;28;20205;-48
2022/06/23 05:49:53;;;;;;;3.05;2.55;;;22.60;54.70;;;;;;5077214;28;20212;-49
2022/06/23 05:52:23;;;;;;;3.08;2.40;;;22.60;54.70;;;;;;5078065;28;20201;-48
2022/06/23 05:55:05;;;;;;;2.90;2.70;;;22.60;54.70;;;;;;5076763;28;20530;-48
2022/06/23 05:57:38;;;;;;;2.83;2.33;;;22.60;54.70;;;;;;5079253;28;20193;-47
2022/06/23 06:00:09;;;;;;;3.33;2.85;;;22.50;54.70;;;;;;5093628;28;20234;-47
2022/06/23 06:02:39;;;;;;;3.10;2.72;;;22.60;54.70;;;;;;5093988;28;20740;-51
2022/06/23 06:05:05;;;;;;;2.72;2.50;;;22.60;54.70;;;;;;5094107;28;20255;-48
2022/06/23 06:07:36;;;;;;;2.63;2.42;;;22.60;54.70;;;;;;5093548;28;20166;-48
2022/06/23 06:10:07;;;;;;;2.53;2.33;;;22.60;54.70;;;;;;5077448;28;20224;-49
2022/06/23 06:12:34;;;;;;;2.60;2.40;;;22.60;54.70;;;;;;5077751;28;20173;-47
2022/06/23 06:15:26;;;;;;;2.47;2.28;;;22.60;54.70;;;;;;5076844;28;20182;-47
2022/06/23 06:17:53;;;;;;;2.97;2.70;;;22.60;54.70;;;;;;5093278;28;20189;-47
2022/06/23 06:20:21;;;;;;;2.30;2.20;;;22.60;55.30;;;;;;5077381;28;20673;-48
2022/06/23 06:22:57;;;;;;;2.35;2.20;;;22.60;54.70;;;;;;5092975;28;20209;-47
2022/06/23 06:25:31;;;;;;;2.65;2.45;;;22.60;54.70;;;;;;5093672;28;20201;-47
2022/06/23 06:28:01;;;;;;;2.80;2.33;;;22.60;54.70;;;;;;5092940;28;20170;-52
2022/06/23 06:30:31;;;;;;;3.15;2.50;;;22.60;54.70;;;;;;5076751;28;20260;-47
2022/06/23 06:32:56;;;;;;;2.22;2.03;;;22.60;54.70;;;;;;5076962;28;20253;-49
2022/06/23 06:35:33;;;;;;;2.53;2.33;;;22.60;54.70;;;;;;5092886;28;20190;-48
2022/06/23 06:38:08;;;;;;;2.60;2.40;;;22.60;54.70;;;;;;5094596;28;20515;-51
2022/06/23 06:40:33;;;;;;;2.65;2.28;;;22.60;54.70;;;;;;5093679;28;20184;-50
2022/06/23 06:43:02;;;;;;;2.42;2.22;;;22.60;54.70;;;;;;5092330;28;20264;-48
2022/06/23 06:45:31;;;;;;;2.28;2.08;;;22.70;54.80;;;;;;5094543;28;20334;-59
2022/06/23 06:47:57;;;;;;;3.22;2.60;;;22.70;54.80;;;;;;5093065;28;20174;-59
2022/06/23 06:50:35;;;;;;;3.17;2.47;;;22.70;54.80;;;;;;5093685;28;20655;-59
2022/06/23 06:53:04;;;;;;;2.75;2.45;;;22.70;55.10;;;;;;5094460;28;20252;-59
2022/06/23 06:55:37;;;;;;;2.53;2.30;;;22.70;55.10;;;;;;5093311;28;20192;-60
2022/06/23 06:58:10;;;;;;;4.38;2.97;;;22.80;55.00;;;;;;5076062;28;20553;-59
2022/06/23 07:00:58;;;;;;;3.42;2.65;;;22.80;55.10;;;;;;5092919;28;20170;-59
2022/06/23 07:03:25;;;;;;;3.45;2.83;;;22.80;55.00;;;;;;5092360;28;20241;-59
2022/06/23 07:05:56;;;;;;;3.88;2.53;;;22.90;55.00;;;;;;5093396;28;20641;-59
2022/06/23 07:08:47;;;;;;;4.03;2.72;;;22.90;54.90;;;;;;5076247;28;20663;-59
2022/06/23 07:11:34;;;;;;;4.20;2.80;;;22.90;55.00;;;;;;5092185;28;20182;-59
2022/06/23 07:14:12;;;;;;;3.03;2.78;;;22.90;55.00;;;;;;5092886;28;20188;-59
2022/06/23 07:16:42;;;;;;;3.35;3.00;;;22.90;55.00;;;;;;5076462;28;20178;-60
2022/06/23 07:19:21;;;;;;;4.97;2.60;;;22.90;55.00;;;;;;5091792;28;20542;-59
2022/06/23 07:22:00;;;;;;;4.43;3.17;;;22.90;55.00;;;;;;5092588;28;20249;-59
2022/06/23 07:24:34;;;;;;;4.15;2.92;;;22.90;55.50;;;;;;5091809;28;20705;-59
2022/06/23 07:27:08;;;;;;;3.40;3.10;;;22.90;54.90;;;;;;5092574;28;20205;-60
2022/06/23 07:29:55;;;;;;;3.90;2.67;;;22.90;54.90;;;;;;5092389;28;20256;-60
2022/06/23 07:32:29;;;;;;;2.72;2.50;;;22.90;54.80;;;;;;5092850;28;20688;-59
2022/06/23 07:35:01;;;;;;;3.53;3.00;;;22.90;54.80;;;;;;5075788;28;20186;-60
2022/06/23 07:37:37;;;;;;;3.47;2.45;;;22.90;54.80;;;;;;5092686;28;20170;-59
2022/06/23 07:40:05;;;;;;;4.10;2.55;;;23.00;54.90;;;;;;5091588;28;20178;-59
2022/06/23 07:42:54;;;;;;;2.75;2.50;;;23.00;54.80;;;;;;5092583;28;20223;-60
2022/06/23 07:45:47;;;;;;;3.45;2.53;;;22.90;54.80;;;;;;5091896;28;20236;-59
2022/06/23 07:48:13;;;;;;;4.70;2.50;;;23.00;54.90;;;;;;5092384;28;20233;-59
2022/06/23 07:50:38;;;;;;;3.72;2.20;;;23.00;54.80;;;;;;5093166;28;20631;-59
2022/06/23 07:53:05;;;;;;;4.05;2.60;;;22.90;54.80;;;;;;5091418;28;20182;-59
2022/06/23 07:55:39;;;;;;;3.45;2.40;;;23.00;54.80;;;;;;5093392;28;20182;-60
2022/06/23 07:58:05;;;;;;;2.70;2.50;;;23.00;54.80;;;;;;5093194;28;20635;-59
2022/06/23 08:00:30;;;;;;;2.85;2.65;;;23.00;54.80;;;;;;5091261;28;20174;-59
2022/06/23 08:03:00;;;;;;;3.55;2.80;;;23.00;54.80;;;;;;5074558;28;20707;-59
2022/06/23 08:05:53;;;;;;;3.15;2.63;;;23.00;54.80;;;;;;5075343;28;20217;-59
2022/06/23 08:08:20;;;;;;;2.70;2.50;;;23.00;54.80;;;;;;5087916;28;20266;-59
2022/06/23 08:10:46;;;;;;;5.03;2.72;;;23.00;54.80;;;;;;5091417;28;20186;-59
2022/06/23 08:13:18;;;;;;;6.03;2.67;;;23.00;54.80;;;;;;5075155;28;20172;-59
2022/06/23 08:19:04;;;;;;;2.97;2.70;;;23.10;54.80;;;;;;5078192;28;20203;-59
2022/06/23 08:21:33;;;;;;;3.65;2.92;;;23.10;54.80;;;;;;5092390;28;20238;-59
2022/06/23 08:24:02;;;;;;;3.00;2.63;;;23.10;54.80;;;;;;5074794;28;20579;-59
2022/06/23 08:26:28;;;;;;;4.72;2.45;;;23.10;54.80;;;;;;5093112;28;20178;-59
2022/06/23 08:28:57;;;;;;;4.15;2.80;;;23.10;54.80;;;;;;5090838;28;20624;-59
2022/06/23 08:31:23;;;;;;;2.47;2.25;;;23.10;54.80;;;;;;5091631;28;20177;-60
2022/06/23 08:33:48;;;;;;;3.83;2.67;;;23.10;54.70;;;;;;5074578;28;20666;-60
2022/06/23 08:36:15;;;;;;;3.22;2.47;;;23.20;54.80;;;;;;5092069;28;20259;-59
2022/06/23 08:39:00;;;;;;;3.40;2.90;;;23.20;54.80;;;;;;5091401;28;20366;-59
2022/06/23 08:41:53;;;;;;;2.50;2.30;;;23.20;54.70;;;;;;5091802;28;20173;-60
2022/06/23 08:44:38;;;;;;;2.80;2.55;;;23.20;54.70;;;;;;5092770;28;20236;-59
2022/06/23 08:47:10;;;;;;;2.70;2.47;;;23.20;54.70;;;;;;5061241;28;20541;-60
2022/06/23 08:50:09;;;;;;;2.80;2.25;;;23.20;54.70;;;;;;5090772;28;20182;-59
2022/06/23 08:52:43;;;;;;;2.65;2.38;;;23.30;54.70;;;;;;5072956;28;20200;-59
2022/06/23 08:55:30;;;;;;;2.38;2.17;;;23.30;54.70;;;;;;5095503;28;20651;-59
2022/06/23 08:58:01;;;;;;;4.43;2.58;;;23.30;54.80;;;;;;5094621;28;20217;-59
2022/06/23 09:00:35;;;;;;;2.70;2.50;;;23.30;54.70;;;;;;5096642;28;20174;-59
2022/06/23 09:03:04;;;;;;;3.03;2.35;;;23.30;54.70;;;;;;5095624;28;20229;-60
2022/06/23 09:05:43;;;;;;;2.20;2.00;;;23.30;54.70;;;;;;5095158;28;20201;-59
2022/06/23 09:08:37;;;;;;;3.58;2.85;;;23.40;54.70;;;;;;5095420;28;20177;-59
2022/06/23 09:11:13;;;;;;;2.83;2.63;;;23.40;54.80;;;;;;5095969;28;20184;-59
2022/06/23 09:13:45;;;;;;;2.83;2.63;;;23.40;54.70;;;;;;5095093;28;20170;-59
2022/06/23 09:16:32;;;;;;;3.45;2.45;;;23.40;54.70;;;;;;5096286;28;20201;-59
2022/06/23 09:19:09;;;;;;;3.67;2.58;;;23.40;54.70;;;;;;5095367;28;20654;-59
2022/06/23 09:21:50;;;;;;;2.88;2.67;;;23.40;54.60;;;;;;5096143;28;20169;-59
2022/06/23 09:24:43;;;;;;;3.08;2.60;;;23.40;54.60;;;;;;5095474;28;20255;-60
2022/06/23 09:28:04;;;;;;;3.10;2.80;;;23.40;54.70;;;;;;5096308;28;20182;-60
2022/06/23 09:31:00;;;;;;;3.22;2.78;;;23.50;54.70;;;;;;5086612;28;20190;-60
2022/06/23 09:33:54;;;;;;;2.97;2.50;;;23.50;54.60;;;;;;5067022;28;20281;-59
2022/06/23 09:36:55;;;;;;;3.72;3.00;;;23.50;54.60;;;;;;5094892;28;20189;-60
2022/06/23 09:39:42;;;;;;;3.55;2.40;;;23.50;54.60;;;;;;5095119;28;20196;-60
2022/06/23 09:42:17;;;;;;;2.70;2.50;;;23.60;54.70;;;;;;5095727;28;20177;-60
2022/06/23 09:45:01;;;;;;;3.30;2.58;;;23.60;54.70;;;;;;5095584;28;20236;-60
2022/06/23 09:47:51;;;;;;;2.70;2.50;;;23.60;54.70;;;;;;5094508;28;20174;-60
2022/06/23 09:50:35;;;;;;;2.90;2.70;;;23.60;54.70;;;;;;5095857;28;20547;-59
2022/06/23 09:53:28;;;;;;;3.95;2.55;;;23.60;54.70;;;;;;5094864;28;20170;-60
2022/06/23 09:56:11;;;;;;;3.22;2.55;;;23.60;54.70;;;;;;5094110;28;20674;-60
2022/06/23 09:58:59;;;;;;;2.72;2.40;;;23.60;54.70;;;;;;5095314;28;20639;-60
2022/06/23 10:01:43;;;;;;;2.65;2.45;;;23.70;54.70;;;;;;5078424;28;20260;-60
2022/06/23 10:04:25;;;;;;;3.17;2.88;;;23.70;54.70;;;;;;5094080;28;20229;-60
2022/06/23 10:07:28;;;;;;;3.20;2.60;;;23.70;55.30;;;;;;5077504;28;20235;-60
2022/06/23 10:10:02;;;;;;;3.67;2.60;;;23.70;54.60;;;;;;5094962;28;20288;-59
2022/06/23 10:12:50;;;;;;;3.53;2.63;;;23.70;55.20;;;;;;5077855;28;20178;-58
2022/06/23 10:15:23;;;;;;;2.90;2.63;;;23.70;54.60;;;;;;5094620;28;20185;-58
2022/06/23 10:18:07;;;;;;;2.80;2.60;;;23.70;54.60;;;;;;5094736;28;20540;-58
2022/06/23 10:20:51;;;;;;;2.92;2.58;;;23.70;54.60;;;;;;5094520;28;20170;-59
2022/06/23 10:23:27;;;;;;;3.67;2.80;;;23.70;54.60;;;;;;5095264;28;20169;-58
2022/06/23 10:25:58;;;;;;;3.65;2.55;;;23.80;54.70;;;;;;5093688;28;20568;-58
2022/06/23 10:28:37;;;;;;;3.00;2.70;;;23.80;54.60;;;;;;5094295;28;20617;-59
2022/06/23 10:31:36;;;;;;;2.88;2.65;;;23.80;54.60;;;;;;5094806;28;20173;-59
2022/06/23 10:34:21;;;;;;;3.40;2.80;;;23.90;54.70;;;;;;5078756;28;20547;-59
2022/06/23 10:36:58;;;;;;;3.83;2.80;;;23.90;54.70;;;;;;5077411;28;20180;-59
2022/06/23 10:39:48;;;;;;;4.40;2.80;;;23.90;54.70;;;;;;5093492;28;20276;-59
2022/06/23 10:42:51;;;;;;;3.40;2.70;;;23.90;54.60;;;;;;5093107;28;20220;-59
2022/06/23 10:45:38;;;;;;;3.00;2.80;;;23.90;54.60;;;;;;5094511;28;20354;-58
2022/06/23 10:48:24;;;;;;;3.17;2.80;;;23.90;54.60;;;;;;5094644;28;20196;-59
2022/06/23 10:51:14;;;;;;;3.00;2.58;;;23.90;54.60;;;;;;5093255;28;20182;-59
2022/06/23 10:54:07;;;;;;;2.97;2.70;;;23.90;54.60;;;;;;5094292;28;20239;-59
2022/06/23 10:56:57;;;;;;;3.53;3.08;;;24.00;54.70;;;;;;5093910;28;20208;-60
2022/06/23 10:59:38;;;;;;;2.78;2.50;;;24.00;54.70;;;;;;5094461;28;20261;-59
2022/06/23 11:02:24;;;;;;;5.00;2.90;;;24.00;54.70;;;;;;5094228;28;20182;-59
2022/06/23 11:05:11;;;;;;;3.95;3.00;;;24.00;54.70;;;;;;5094109;28;20221;-59
2022/06/23 11:07:42;;;;;;;3.72;3.38;;;24.00;54.70;;;;;;5077229;28;20185;-59
2022/06/23 11:10:17;;;;;;;3.33;3.00;;;24.00;54.70;;;;;;5093253;28;20658;-59
2022/06/23 11:12:59;;;;;;;4.47;2.72;;;24.00;54.70;;;;;;5093842;28;20627;-59
2022/06/23 11:15:36;;;;;;;3.75;3.00;;;24.00;54.70;;;;;;5077989;28;20192;-59
2022/06/23 11:18:21;;;;;;;3.70;3.08;;;24.00;54.70;;;;;;5093160;28;20169;-59
2022/06/23 11:21:10;;;;;;;4.43;3.03;;;24.00;55.30;;;;;;5092590;28;20170;-59
2022/06/23 11:23:41;;;;;;;4.53;3.00;;;24.00;54.70;;;;;;5077851;28;20180;-59
2022/06/23 11:26:35;;;;;;;3.97;3.50;;;24.10;54.70;;;;;;5092719;28;20266;-59
2022/06/23 11:29:25;;;;;;;3.47;2.90;;;24.10;54.70;;;;;;5092712;28;20269;-59
2022/06/23 11:32:22;;;;;;;3.35;3.03;;;24.10;54.70;;;;;;5077544;28;20180;-59
2022/06/23 11:35:06;;;;;;;2.88;2.67;;;24.10;54.70;;;;;;5092300;28;20188;-48
2022/06/23 11:37:49;;;;;;;5.75;3.40;;;24.10;54.80;;;;;;5092985;28;20574;-47
2022/06/23 11:40:36;;;;;;;5.03;3.53;;;24.00;54.90;;;;;;5097335;28;20173;-47
2022/06/23 11:43:18;;;;;;;4.35;2.95;;;24.00;55.00;;;;;;5095864;28;20588;-52
2022/06/23 11:45:55;;;;;;;3.30;3.00;;;24.00;55.00;;;;;;5111679;28;20212;-49
2022/06/23 11:48:55;;;;;;;5.57;3.03;;;24.00;55.00;;;;;;5104783;28;20174;-46
2022/06/23 11:51:32;;;;;;;3.30;2.97;;;24.00;55.00;;;;;;5093630;28;20188;-51
2022/06/23 11:54:10;;;;;;;4.03;3.17;;;24.00;55.00;;;;;;5091777;28;20166;-50
2022/06/23 11:56:43;;;;;;;4.78;3.63;;;24.00;55.00;;;;;;5098472;28;20185;-46
2022/06/23 11:59:33;;;;;;;4.00;2.90;;;24.00;55.00;;;;;;5106489;28;20242;-46
2022/06/23 12:01:59;;;;;;;4.28;3.03;;;24.00;55.00;;;;;;5092930;28;20173;-46
2022/06/23 12:04:32;;;;;;;4.38;3.17;;;24.00;55.10;;;;;;5092986;28;20240;-47
2022/06/23 12:07:15;;;;;;;3.72;3.25;;;24.00;55.10;;;;;;5092059;28;20166;-47
2022/06/23 12:09:59;;;;;;;5.32;3.20;;;24.00;55.00;;;;;;5093052;28;20173;-47
2022/06/23 12:12:25;;;;;;;4.35;3.33;;;24.00;55.00;;;;;;5092169;28;20178;-47
2022/06/23 12:14:51;;;;;;;5.60;3.17;;;24.10;55.00;;;;;;5107199;28;20178;-50
2022/06/23 12:17:36;;;;;;;3.45;3.15;;;24.00;55.00;;;;;;5112023;28;20230;-48
2022/06/23 12:20:10;;;;;;;4.05;3.28;;;24.10;55.00;;;;;;5112829;28;20191;-47
2022/06/23 12:22:44;;;;;;;3.72;3.30;;;24.10;55.10;;;;;;5113188;28;20296;-49
2022/06/23 12:25:39;;;;;;;5.20;3.75;;;24.10;55.00;;;;;;5112055;28;20263;-48
2022/06/23 12:28:10;;;;;;;5.38;3.13;;;24.10;55.00;;;;;;5111380;28;20203;-49
2022/06/23 12:30:44;;;;;;;8.57;3.70;;;24.10;55.00;;;;;;5113087;28;20280;-51
2022/06/23 12:33:42;;;;;;;7.97;3.25;;;24.10;55.00;;;;;;5112363;28;20258;-49
2022/06/23 12:36:20;;;;;;;5.13;3.15;;;24.20;55.00;;;;;;5067954;28;20204;-50
2022/06/23 12:39:07;;;;;;;4.57;3.08;;;24.10;54.90;;;;;;5111900;28;20230;-47
2022/06/23 12:41:43;;;;;;;4.18;3.20;;;24.20;54.80;;;;;;5111342;28;20234;-49
2022/06/23 12:44:50;;;;;;;3.50;3.20;;;24.20;54.80;;;;;;5111830;28;20208;-49
2022/06/23 12:47:49;;;;;;;3.72;3.33;;;24.20;54.80;;;;;;5076462;28;20180;-52
2022/06/23 12:50:35;;;;;;;4.78;3.28;;;24.20;54.80;;;;;;5092689;28;20184;-54
2022/06/23 12:53:36;;;;;;;4.47;3.35;;;24.30;54.90;;;;;;5092770;28;20170;-48
2022/06/23 12:56:13;;;;;;;5.53;3.42;;;24.30;54.60;;;;;;5091055;28;20170;-50
2022/06/23 12:58:46;;;;;;;6.13;3.10;;;24.30;54.60;;;;;;5092629;28;20174;-47
2022/06/23 13:01:38;;;;;;;4.80;3.30;;;24.30;54.60;;;;;;5091632;28;20560;-47
2022/06/23 13:04:11;;;;;;;8.68;3.25;;;24.40;54.60;;;;;;5076615;28;20230;-50
2022/06/23 13:07:10;;;;;;;5.18;3.05;;;24.40;54.60;;;;;;5091262;28;20181;-48
2022/06/23 13:10:23;;;;;;;4.13;2.95;;;24.50;54.60;;;;;;5090412;28;20180;-50
2022/06/23 13:13:07;;;;;;;5.60;3.80;;;24.40;55.20;;;;;;5078475;28;20190;-51
2022/06/23 13:15:54;;;;;;;7.03;3.97;;;24.50;54.60;;;;;;5075350;28;20513;-53
2022/06/23 13:18:42;;;;;;;5.20;3.30;;;24.50;54.60;;;;;;5076834;28;20185;-51
2022/06/23 13:21:12;;;;;;;4.90;3.20;;;24.50;54.60;;;;;;5091103;28;20636;-52
2022/06/23 13:23:42;;;;;;;4.35;3.53;;;24.50;54.50;;;;;;5091514;28;20182;-52
2022/06/23 13:26:17;;;;;;;4.90;3.75;;;24.40;54.60;;;;;;5091314;28;20174;-46
2022/06/23 13:28:44;;;;;;;3.88;3.13;;;24.50;54.60;;;;;;5074985;28;20585;-46
2022/06/23 13:31:20;;;;;;;6.25;3.67;;;24.50;54.50;;;;;;5090763;28;20189;-45
2022/06/23 13:33:51;;;;;;;4.95;3.45;;;24.40;54.60;;;;;;5075176;28;20170;-47
2022/06/23 13:36:39;;;;;;;5.68;3.92;;;24.40;54.60;;;;;;5075552;28;20257;-47
2022/06/23 13:39:22;;;;;;;5.45;3.45;;;24.50;54.50;;;;;;5090247;28;20643;-46
2022/06/23 13:42:11;;;;;;;7.85;3.40;;;24.50;54.50;;;;;;5079192;28;20261;-46
2022/06/23 13:44:43;;;;;;;4.95;3.80;;;24.50;54.60;;;;;;5093834;28;20212;-46
2022/06/23 13:47:21;;;;;;;7.50;3.60;;;24.50;54.60;;;;;;5096636;28;20174;-48
2022/06/23 13:49:52;;;;;;;6.95;3.42;;;24.60;54.70;;;;;;5115879;28;20563;-48
2022/06/23 13:52:29;;;;;;;5.22;3.63;;;24.60;54.60;;;;;;5114293;28;20184;-46